Young Endeavour — VMGW — position and weather

sailwx.info

Track history (hours):
 
Tides and Currents Weather Stations Pressure Air Temp Water Temp Dewpoint Dewpoint Depression Visibility Wind Speed Wind Dir Waves Ship Positions

Young Endeavour (Australia)

Ship's website: http://www.youngendeavour.gov.au/

Last reported at 2017-Sep-04 09:42 UTC. Time now 2017-Sep-22 15:30 UTC.
Position S 26°48' E 153°11'.
Warning: this ship's position is 18 days out of date.

Length 44 m; beam 7.8 m; draft 4 m.

Type: Sailing vessel. MMSI: 503071000.

Date/timePositionNaut miles runAvg speedWind from/ knotsBaromVisibWave heightAir tempDewpointWater temp
2017-Sep-04 09:42S 26°48' E 153°11'1 4.4
2017-Sep-04 09:30S 26°48' E 153°11'3 5.0
2017-Sep-04 09:00S 26°50' E 153°09'2 4.6
2017-Sep-04 08:30S 26°53' E 153°09'5 4.9
2017-Sep-04 07:31S 26°57' E 153°12'1 4.2
2017-Sep-04 07:19S 26°58' E 153°12'1 4.4
2017-Sep-04 07:00S 26°59' E 153°13'2 4.4
2017-Sep-04 06:30S 27°01' E 153°14'2 4.0
2017-Sep-04 05:58S 27°03' E 153°15'2 5.0
2017-Sep-04 05:30S 27°04' E 153°17'8 5.3
2017-Sep-04 03:57S 27°12' E 153°21'2 0.2
2017-Sep-03 18:39S 27°10' E 153°22'0 0.0
2017-Sep-03 18:18S 27°10' E 153°22'0 0.0
2017-Sep-03 17:51S 27°10' E 153°22'0 0.0
2017-Sep-03 16:18S 27°10' E 153°22'0 0.0
2017-Sep-03 10:51S 27°10' E 153°22'0 0.0
2017-Sep-03 10:23S 27°10' E 153°22'2 4.0
2017-Sep-03 10:00S 27°12' E 153°21'3 4.7
2017-Sep-03 09:17S 27°15' E 153°19'2 5.7
2017-Sep-03 09:00S 27°15' E 153°18'3 5.7
2017-Sep-03 08:30S 27°17' E 153°15'3 5.9
2017-Sep-03 08:00S 27°19' E 153°13'3 5.9
2017-Sep-03 07:30S 27°21' E 153°11'3 6.2
2017-Sep-03 07:00S 27°24' E 153°09'3 5.8
2017-Sep-03 06:26S 27°26' E 153°07'  
2017-Aug-29 22:00S 27°24' E 153°09'3 6.3
2017-Aug-29 21:30S 27°21' E 153°11'3 6.3
2017-Aug-29 20:59S 27°19' E 153°12'2 5.2
2017-Aug-29 20:30S 27°17' E 153°14'3 5.2
2017-Aug-29 20:01S 27°16' E 153°17'3 6.2
2017-Aug-29 19:30S 27°14' E 153°20'3 5.6
2017-Aug-29 19:00S 27°12' E 153°22'1 1.9
2017-Aug-29 18:18S 27°10' E 153°22'0 0.0
2017-Aug-29 17:48S 27°10' E 153°22'0 0.0
2017-Aug-29 17:18S 27°10' E 153°22'0 0.0
2017-Aug-29 16:57S 27°10' E 153°22'0 0.0
2017-Aug-29 16:30S 27°10' E 153°22'0 0.0
2017-Aug-29 10:51S 27°10' E 153°22'0 0.0
2017-Aug-29 09:54S 27°10' E 153°22'9 0.7
2017-Aug-28 20:50S 27°01' E 153°20'23 0.7
2017-Aug-27 13:27S 26°41' E 153°08'66 2.0
2017-Aug-26 05:26S 27°42' E 153°34'3 7.0
2017-Aug-26 05:00S 27°45' E 153°33'3 7.0
2017-Aug-26 04:31S 27°48' E 153°32'3 6.8
2017-Aug-26 04:00S 27°51' E 153°31'3 7.0
2017-Aug-26 03:30S 27°55' E 153°30'4 7.0
2017-Aug-26 03:00S 27°58' E 153°28'2 4.8
2017-Aug-26 02:30S 28°01' E 153°28'2 3.9
2017-Aug-26 02:01S 28°02' E 153°28'2 3.9
2017-Aug-26 01:30S 28°04' E 153°29'2 3.9
2017-Aug-26 01:01S 28°06' E 153°30'2 4.0
2017-Aug-26 00:30S 28°07' E 153°32'1 2.6
2017-Aug-26 00:01S 28°08' E 153°33'1 2.9
2017-Aug-25 23:31S 28°08' E 153°35'2 3.7
2017-Aug-25 23:01S 28°08' E 153°37'3 5.2
2017-Aug-25 22:31S 28°10' E 153°39'3 5.9
2017-Aug-25 22:01S 28°13' E 153°40'3 5.9
2017-Aug-25 21:31S 28°16' E 153°41'3 6.9
2017-Aug-25 21:01S 28°19' E 153°42'4 7.0
2017-Aug-25 20:30S 28°23' E 153°42'3 7.1
2017-Aug-25 20:01S 28°26' E 153°42'  
Track history (hours):
 
Tides and Currents Weather Stations Pressure Air Temp Water Temp Dewpoint Dewpoint Depression Visibility Wind Speed Wind Dir Waves Ship Positions

Young Endeavour (Australia)

Ship's website: http://www.youngendeavour.gov.au/

Last reported at 2017-Sep-04 09:42 UTC. Time now 2017-Sep-22 15:30 UTC.
Position S 26°48' E 153°11'.
Warning: this ship's position is 18 days out of date.

Length 44 m; beam 7.8 m; draft 4 m.

Type: Sailing vessel. MMSI: 503071000.

Date/timePositionNaut miles runAvg speedWind from/ knotsBaromVisibWave heightAir tempDewpointWater temp
2017-Sep-04 09:42S 26°48' E 153°11'1 4.4
2017-Sep-04 09:30S 26°48' E 153°11'3 5.0
2017-Sep-04 09:00S 26°50' E 153°09'2 4.6
2017-Sep-04 08:30S 26°53' E 153°09'5 4.9
2017-Sep-04 07:31S 26°57' E 153°12'1 4.2
2017-Sep-04 07:19S 26°58' E 153°12'1 4.4
2017-Sep-04 07:00S 26°59' E 153°13'2 4.4
2017-Sep-04 06:30S 27°01' E 153°14'2 4.0
2017-Sep-04 05:58S 27°03' E 153°15'2 5.0
2017-Sep-04 05:30S 27°04' E 153°17'8 5.3
2017-Sep-04 03:57S 27°12' E 153°21'2 0.2
2017-Sep-03 18:39S 27°10' E 153°22'0 0.0
2017-Sep-03 18:18S 27°10' E 153°22'0 0.0
2017-Sep-03 17:51S 27°10' E 153°22'0 0.0
2017-Sep-03 16:18S 27°10' E 153°22'0 0.0
2017-Sep-03 10:51S 27°10' E 153°22'0 0.0
2017-Sep-03 10:23S 27°10' E 153°22'2 4.0
2017-Sep-03 10:00S 27°12' E 153°21'3 4.7
2017-Sep-03 09:17S 27°15' E 153°19'2 5.7
2017-Sep-03 09:00S 27°15' E 153°18'3 5.7
2017-Sep-03 08:30S 27°17' E 153°15'3 5.9
2017-Sep-03 08:00S 27°19' E 153°13'3 5.9
2017-Sep-03 07:30S 27°21' E 153°11'3 6.2
2017-Sep-03 07:00S 27°24' E 153°09'3 5.8
2017-Sep-03 06:26S 27°26' E 153°07'  
2017-Aug-29 22:00S 27°24' E 153°09'3 6.3
2017-Aug-29 21:30S 27°21' E 153°11'3 6.3
2017-Aug-29 20:59S 27°19' E 153°12'2 5.2
2017-Aug-29 20:30S 27°17' E 153°14'3 5.2
2017-Aug-29 20:01S 27°16' E 153°17'3 6.2
2017-Aug-29 19:30S 27°14' E 153°20'3 5.6
2017-Aug-29 19:00S 27°12' E 153°22'1 1.9
2017-Aug-29 18:18S 27°10' E 153°22'0 0.0
2017-Aug-29 17:48S 27°10' E 153°22'0 0.0
2017-Aug-29 17:18S 27°10' E 153°22'0 0.0
2017-Aug-29 16:57S 27°10' E 153°22'0 0.0
2017-Aug-29 16:30S 27°10' E 153°22'0 0.0
2017-Aug-29 10:51S 27°10' E 153°22'0 0.0
2017-Aug-29 09:54S 27°10' E 153°22'9 0.7
2017-Aug-28 20:50S 27°01' E 153°20'23 0.7
2017-Aug-27 13:27S 26°41' E 153°08'66 2.0
2017-Aug-26 05:26S 27°42' E 153°34'3 7.0
2017-Aug-26 05:00S 27°45' E 153°33'3 7.0
2017-Aug-26 04:31S 27°48' E 153°32'3 6.8
2017-Aug-26 04:00S 27°51' E 153°31'3 7.0
2017-Aug-26 03:30S 27°55' E 153°30'4 7.0
2017-Aug-26 03:00S 27°58' E 153°28'2 4.8
2017-Aug-26 02:30S 28°01' E 153°28'2 3.9
2017-Aug-26 02:01S 28°02' E 153°28'2 3.9
2017-Aug-26 01:30S 28°04' E 153°29'2 3.9
2017-Aug-26 01:01S 28°06' E 153°30'2 4.0
2017-Aug-26 00:30S 28°07' E 153°32'1 2.6
2017-Aug-26 00:01S 28°08' E 153°33'1 2.9
2017-Aug-25 23:31S 28°08' E 153°35'2 3.7
2017-Aug-25 23:01S 28°08' E 153°37'3 5.2
2017-Aug-25 22:31S 28°10' E 153°39'3 5.9
2017-Aug-25 22:01S 28°13' E 153°40'3 5.9
2017-Aug-25 21:31S 28°16' E 153°41'3 6.9
2017-Aug-25 21:01S 28°19' E 153°42'4 7.0
2017-Aug-25 20:30S 28°23' E 153°42'3 7.1
2017-Aug-25 20:01S 28°26' E 153°42'  

Dump ship's entire track history